sensor_id;sensor_type;location;lat;lon;timestamp;P1;durP1;ratioP1;P2;durP2;ratioP2
10126;SDS011;13080;42.608;23.362;2023-07-13T00:01:34;5.75;;;2.90;;
10126;SDS011;13080;42.608;23.362;2023-07-13T00:04:03;4.03;;;2.55;;
10126;SDS011;13080;42.608;23.362;2023-07-13T00:06:31;3.53;;;2.60;;
10126;SDS011;13080;42.608;23.362;2023-07-13T00:08:58;5.18;;;2.85;;
10126;SDS011;13080;42.608;23.362;2023-07-13T00:11:24;4.18;;;2.65;;
10126;SDS011;13080;42.608;23.362;2023-07-13T00:13:51;4.00;;;2.70;;
10126;SDS011;13080;42.608;23.362;2023-07-13T00:16:19;4.78;;;2.72;;
10126;SDS011;13080;42.608;23.362;2023-07-13T00:18:46;3.42;;;2.50;;
10126;SDS011;13080;42.608;23.362;2023-07-13T00:21:13;4.95;;;2.60;;
10126;SDS011;13080;42.608;23.362;2023-07-13T00:23:41;4.85;;;2.45;;
10126;SDS011;13080;42.608;23.362;2023-07-13T00:26:09;6.07;;;2.85;;
10126;SDS011;13080;42.608;23.362;2023-07-13T00:28:37;4.65;;;2.70;;
10126;SDS011;13080;42.608;23.362;2023-07-13T00:31:05;4.10;;;2.30;;
10126;SDS011;13080;42.608;23.362;2023-07-13T00:33:33;5.35;;;2.72;;
10126;SDS011;13080;42.608;23.362;2023-07-13T00:36:00;4.72;;;2.92;;
10126;SDS011;13080;42.608;23.362;2023-07-13T00:38:26;5.45;;;2.75;;
10126;SDS011;13080;42.608;23.362;2023-07-13T00:40:53;5.00;;;2.72;;
10126;SDS011;13080;42.608;23.362;2023-07-13T00:43:21;6.05;;;3.38;;
10126;SDS011;13080;42.608;23.362;2023-07-13T00:48:53;5.95;;;3.25;;
10126;SDS011;13080;42.608;23.362;2023-07-13T00:51:25;6.13;;;3.33;;
10126;SDS011;13080;42.608;23.362;2023-07-13T00:53:56;5.88;;;3.05;;
10126;SDS011;13080;42.608;23.362;2023-07-13T00:56:26;5.65;;;2.95;;
10126;SDS011;13080;42.608;23.362;2023-07-13T00:58:54;4.07;;;2.72;;
10126;SDS011;13080;42.608;23.362;2023-07-13T01:01:22;4.63;;;3.10;;
10126;SDS011;13080;42.608;23.362;2023-07-13T01:03:48;7.18;;;3.00;;
10126;SDS011;13080;42.608;23.362;2023-07-13T01:06:16;4.15;;;3.13;;
10126;SDS011;13080;42.608;23.362;2023-07-13T01:08:43;4.95;;;2.95;;
10126;SDS011;13080;42.608;23.362;2023-07-13T01:11:10;5.13;;;2.97;;
10126;SDS011;13080;42.608;23.362;2023-07-13T01:13:37;4.00;;;2.83;;
10126;SDS011;13080;42.608;23.362;2023-07-13T01:16:05;6.07;;;3.33;;
10126;SDS011;13080;42.608;23.362;2023-07-13T01:18:41;4.75;;;3.30;;
10126;SDS011;13080;42.608;23.362;2023-07-13T01:21:09;6.72;;;3.30;;
10126;SDS011;13080;42.608;23.362;2023-07-13T01:23:36;5.28;;;3.40;;
10126;SDS011;13080;42.608;23.362;2023-07-13T01:26:02;4.60;;;2.97;;
10126;SDS011;13080;42.608;23.362;2023-07-13T01:28:29;4.75;;;2.95;;
10126;SDS011;13080;42.608;23.362;2023-07-13T01:30:57;7.00;;;3.00;;
10126;SDS011;13080;42.608;23.362;2023-07-13T01:33:24;4.45;;;3.28;;
10126;SDS011;13080;42.608;23.362;2023-07-13T01:35:51;5.40;;;2.90;;
10126;SDS011;13080;42.608;23.362;2023-07-13T01:38:21;6.82;;;3.33;;
10126;SDS011;13080;42.608;23.362;2023-07-13T01:40:49;7.43;;;3.78;;
10126;SDS011;13080;42.608;23.362;2023-07-13T01:43:16;5.00;;;3.13;;
10126;SDS011;13080;42.608;23.362;2023-07-13T01:45:43;7.00;;;3.88;;
10126;SDS011;13080;42.608;23.362;2023-07-13T01:48:11;6.72;;;2.80;;
10126;SDS011;13080;42.608;23.362;2023-07-13T01:50:38;5.82;;;3.33;;
10126;SDS011;13080;42.608;23.362;2023-07-13T01:53:05;5.55;;;3.33;;
10126;SDS011;13080;42.608;23.362;2023-07-13T01:55:34;7.03;;;3.17;;
10126;SDS011;13080;42.608;23.362;2023-07-13T01:58:01;6.45;;;3.75;;
10126;SDS011;13080;42.608;23.362;2023-07-13T02:00:28;5.20;;;3.17;;
10126;SDS011;13080;42.608;23.362;2023-07-13T02:02:54;7.60;;;3.70;;
10126;SDS011;13080;42.608;23.362;2023-07-13T02:05:22;6.30;;;3.25;;
10126;SDS011;13080;42.608;23.362;2023-07-13T02:07:48;5.55;;;3.20;;
10126;SDS011;13080;42.608;23.362;2023-07-13T02:10:15;5.95;;;3.83;;
10126;SDS011;13080;42.608;23.362;2023-07-13T02:12:43;5.00;;;3.45;;
10126;SDS011;13080;42.608;23.362;2023-07-13T02:15:10;5.22;;;3.70;;
10126;SDS011;13080;42.608;23.362;2023-07-13T02:17:37;3.95;;;3.03;;
10126;SDS011;13080;42.608;23.362;2023-07-13T02:20:04;8.23;;;3.55;;
10126;SDS011;13080;42.608;23.362;2023-07-13T02:22:32;5.30;;;3.17;;
10126;SDS011;13080;42.608;23.362;2023-07-13T02:24:59;7.68;;;3.47;;
10126;SDS011;13080;42.608;23.362;2023-07-13T02:27:25;5.68;;;3.22;;
10126;SDS011;13080;42.608;23.362;2023-07-13T02:29:53;5.45;;;2.85;;
10126;SDS011;13080;42.608;23.362;2023-07-13T02:32:20;5.75;;;3.45;;
10126;SDS011;13080;42.608;23.362;2023-07-13T02:34:47;4.38;;;3.58;;
10126;SDS011;13080;42.608;23.362;2023-07-13T02:37:14;5.72;;;3.22;;
10126;SDS011;13080;42.608;23.362;2023-07-13T02:39:41;4.43;;;3.00;;
10126;SDS011;13080;42.608;23.362;2023-07-13T02:42:07;5.72;;;3.17;;
10126;SDS011;13080;42.608;23.362;2023-07-13T02:44:34;6.53;;;3.53;;
10126;SDS011;13080;42.608;23.362;2023-07-13T02:47:02;5.45;;;3.58;;
10126;SDS011;13080;42.608;23.362;2023-07-13T02:49:29;5.05;;;3.53;;
10126;SDS011;13080;42.608;23.362;2023-07-13T02:51:56;6.63;;;3.55;;
10126;SDS011;13080;42.608;23.362;2023-07-13T02:54:22;6.70;;;3.28;;
10126;SDS011;13080;42.608;23.362;2023-07-13T02:56:49;5.28;;;3.42;;
10126;SDS011;13080;42.608;23.362;2023-07-13T02:59:16;6.05;;;3.42;;
10126;SDS011;13080;42.608;23.362;2023-07-13T03:01:42;5.55;;;3.38;;
10126;SDS011;13080;42.608;23.362;2023-07-13T03:04:10;6.97;;;3.58;;
10126;SDS011;13080;42.608;23.362;2023-07-13T03:06:37;7.07;;;2.95;;
10126;SDS011;13080;42.608;23.362;2023-07-13T03:09:04;5.07;;;3.80;;
10126;SDS011;13080;42.608;23.362;2023-07-13T03:11:31;4.35;;;3.65;;
10126;SDS011;13080;42.608;23.362;2023-07-13T03:13:58;6.53;;;3.45;;
10126;SDS011;13080;42.608;23.362;2023-07-13T03:16:25;5.90;;;3.65;;
10126;SDS011;13080;42.608;23.362;2023-07-13T03:18:51;6.88;;;3.67;;
10126;SDS011;13080;42.608;23.362;2023-07-13T03:21:20;5.40;;;3.92;;
10126;SDS011;13080;42.608;23.362;2023-07-13T03:23:46;7.40;;;3.83;;
10126;SDS011;13080;42.608;23.362;2023-07-13T03:26:14;6.47;;;3.78;;
10126;SDS011;13080;42.608;23.362;2023-07-13T03:28:43;5.93;;;3.65;;
10126;SDS011;13080;42.608;23.362;2023-07-13T03:31:11;5.38;;;3.50;;
10126;SDS011;13080;42.608;23.362;2023-07-13T03:33:40;6.18;;;3.42;;
10126;SDS011;13080;42.608;23.362;2023-07-13T03:36:10;5.25;;;3.70;;
10126;SDS011;13080;42.608;23.362;2023-07-13T03:38:40;8.90;;;4.15;;
10126;SDS011;13080;42.608;23.362;2023-07-13T03:41:06;6.63;;;4.47;;
10126;SDS011;13080;42.608;23.362;2023-07-13T03:43:33;6.38;;;4.13;;
10126;SDS011;13080;42.608;23.362;2023-07-13T03:46:00;5.00;;;4.50;;
10126;SDS011;13080;42.608;23.362;2023-07-13T03:48:26;6.50;;;4.32;;
10126;SDS011;13080;42.608;23.362;2023-07-13T03:50:53;9.35;;;4.90;;
10126;SDS011;13080;42.608;23.362;2023-07-13T03:53:20;5.50;;;4.65;;
10126;SDS011;13080;42.608;23.362;2023-07-13T03:55:48;6.03;;;4.30;;
10126;SDS011;13080;42.608;23.362;2023-07-13T03:58:28;8.25;;;4.18;;
10126;SDS011;13080;42.608;23.362;2023-07-13T04:00:57;6.97;;;4.65;;
10126;SDS011;13080;42.608;23.362;2023-07-13T04:03:26;7.95;;;4.80;;
10126;SDS011;13080;42.608;23.362;2023-07-13T04:05:53;7.53;;;4.30;;
10126;SDS011;13080;42.608;23.362;2023-07-13T04:08:25;6.32;;;4.10;;
10126;SDS011;13080;42.608;23.362;2023-07-13T04:10:54;6.63;;;4.15;;
10126;SDS011;13080;42.608;23.362;2023-07-13T04:13:21;6.22;;;4.32;;
10126;SDS011;13080;42.608;23.362;2023-07-13T04:15:48;6.75;;;4.55;;
10126;SDS011;13080;42.608;23.362;2023-07-13T04:18:16;7.72;;;4.50;;
10126;SDS011;13080;42.608;23.362;2023-07-13T04:20:43;5.55;;;3.92;;
10126;SDS011;13080;42.608;23.362;2023-07-13T04:23:10;6.13;;;4.38;;
10126;SDS011;13080;42.608;23.362;2023-07-13T04:25:37;6.82;;;4.25;;
10126;SDS011;13080;42.608;23.362;2023-07-13T04:28:05;5.82;;;4.20;;
10126;SDS011;13080;42.608;23.362;2023-07-13T04:30:32;9.18;;;4.40;;
10126;SDS011;13080;42.608;23.362;2023-07-13T04:32:59;7.97;;;4.22;;
10126;SDS011;13080;42.608;23.362;2023-07-13T04:35:26;11.20;;;4.78;;
10126;SDS011;13080;42.608;23.362;2023-07-13T04:37:52;9.55;;;4.65;;
10126;SDS011;13080;42.608;23.362;2023-07-13T04:40:20;9.60;;;4.88;;
10126;SDS011;13080;42.608;23.362;2023-07-13T04:42:47;8.02;;;4.53;;
10126;SDS011;13080;42.608;23.362;2023-07-13T04:45:15;8.18;;;4.60;;
10126;SDS011;13080;42.608;23.362;2023-07-13T04:47:42;8.07;;;4.78;;
10126;SDS011;13080;42.608;23.362;2023-07-13T04:50:09;8.63;;;4.53;;
10126;SDS011;13080;42.608;23.362;2023-07-13T04:52:40;8.05;;;4.60;;
10126;SDS011;13080;42.608;23.362;2023-07-13T04:55:07;8.68;;;4.65;;
10126;SDS011;13080;42.608;23.362;2023-07-13T04:57:34;5.57;;;4.65;;
10126;SDS011;13080;42.608;23.362;2023-07-13T05:00:01;10.45;;;5.15;;
10126;SDS011;13080;42.608;23.362;2023-07-13T05:02:32;12.68;;;5.00;;
10126;SDS011;13080;42.608;23.362;2023-07-13T05:05:00;10.98;;;5.93;;
10126;SDS011;13080;42.608;23.362;2023-07-13T05:07:28;11.13;;;5.22;;
10126;SDS011;13080;42.608;23.362;2023-07-13T05:09:55;11.27;;;5.35;;
10126;SDS011;13080;42.608;23.362;2023-07-13T05:12:22;14.45;;;6.50;;
10126;SDS011;13080;42.608;23.362;2023-07-13T05:14:48;12.40;;;5.93;;
10126;SDS011;13080;42.608;23.362;2023-07-13T05:17:15;10.57;;;5.30;;
10126;SDS011;13080;42.608;23.362;2023-07-13T05:19:43;10.95;;;6.13;;
10126;SDS011;13080;42.608;23.362;2023-07-13T05:22:10;9.00;;;5.78;;
10126;SDS011;13080;42.608;23.362;2023-07-13T05:24:37;12.73;;;6.40;;
10126;SDS011;13080;42.608;23.362;2023-07-13T05:27:04;8.32;;;5.05;;
10126;SDS011;13080;42.608;23.362;2023-07-13T05:29:31;9.65;;;5.65;;
10126;SDS011;13080;42.608;23.362;2023-07-13T05:31:58;10.45;;;5.18;;
10126;SDS011;13080;42.608;23.362;2023-07-13T05:34:24;10.75;;;5.70;;
10126;SDS011;13080;42.608;23.362;2023-07-13T05:36:53;7.80;;;5.18;;
10126;SDS011;13080;42.608;23.362;2023-07-13T05:39:19;12.15;;;6.20;;
10126;SDS011;13080;42.608;23.362;2023-07-13T05:41:46;10.73;;;5.78;;
10126;SDS011;13080;42.608;23.362;2023-07-13T05:44:13;20.02;;;6.45;;
10126;SDS011;13080;42.608;23.362;2023-07-13T05:46:39;12.90;;;6.38;;
10126;SDS011;13080;42.608;23.362;2023-07-13T05:49:06;12.48;;;6.53;;
10126;SDS011;13080;42.608;23.362;2023-07-13T05:51:33;10.73;;;5.90;;
10126;SDS011;13080;42.608;23.362;2023-07-13T05:54:01;10.93;;;5.65;;
10126;SDS011;13080;42.608;23.362;2023-07-13T05:56:28;12.77;;;5.80;;
10126;SDS011;13080;42.608;23.362;2023-07-13T05:58:55;10.23;;;5.53;;
10126;SDS011;13080;42.608;23.362;2023-07-13T06:01:22;8.70;;;5.82;;
10126;SDS011;13080;42.608;23.362;2023-07-13T06:03:49;10.82;;;5.47;;
10126;SDS011;13080;42.608;23.362;2023-07-13T06:06:16;12.60;;;6.07;;
10126;SDS011;13080;42.608;23.362;2023-07-13T06:08:43;14.30;;;5.88;;
10126;SDS011;13080;42.608;23.362;2023-07-13T06:11:12;15.80;;;6.25;;
10126;SDS011;13080;42.608;23.362;2023-07-13T06:13:40;16.75;;;6.75;;
10126;SDS011;13080;42.608;23.362;2023-07-13T06:16:07;13.65;;;5.50;;
10126;SDS011;13080;42.608;23.362;2023-07-13T06:18:34;19.48;;;5.68;;
10126;SDS011;13080;42.608;23.362;2023-07-13T06:21:05;18.33;;;6.55;;
10126;SDS011;13080;42.608;23.362;2023-07-13T06:23:33;12.30;;;6.20;;
10126;SDS011;13080;42.608;23.362;2023-07-13T06:26:00;11.73;;;5.88;;
10126;SDS011;13080;42.608;23.362;2023-07-13T06:28:29;10.98;;;6.47;;
10126;SDS011;13080;42.608;23.362;2023-07-13T06:30:56;8.73;;;5.82;;
10126;SDS011;13080;42.608;23.362;2023-07-13T06:33:23;12.15;;;5.80;;
10126;SDS011;13080;42.608;23.362;2023-07-13T06:35:50;12.95;;;6.38;;
10126;SDS011;13080;42.608;23.362;2023-07-13T06:38:16;14.27;;;6.82;;
10126;SDS011;13080;42.608;23.362;2023-07-13T06:40:43;10.98;;;6.72;;
10126;SDS011;13080;42.608;23.362;2023-07-13T06:43:10;7.43;;;6.20;;
10126;SDS011;13080;42.608;23.362;2023-07-13T06:45:43;7.97;;;6.10;;
10126;SDS011;13080;42.608;23.362;2023-07-13T06:48:12;10.02;;;6.60;;
10126;SDS011;13080;42.608;23.362;2023-07-13T06:50:39;12.10;;;6.70;;
10126;SDS011;13080;42.608;23.362;2023-07-13T06:53:06;9.45;;;6.90;;
10126;SDS011;13080;42.608;23.362;2023-07-13T06:55:32;8.82;;;6.22;;
10126;SDS011;13080;42.608;23.362;2023-07-13T06:57:59;8.82;;;5.85;;
10126;SDS011;13080;42.608;23.362;2023-07-13T07:00:26;7.80;;;5.93;;
10126;SDS011;13080;42.608;23.362;2023-07-13T07:02:54;7.93;;;5.78;;
10126;SDS011;13080;42.608;23.362;2023-07-13T07:05:20;8.45;;;6.03;;
10126;SDS011;13080;42.608;23.362;2023-07-13T07:07:47;9.32;;;6.47;;
10126;SDS011;13080;42.608;23.362;2023-07-13T07:10:14;12.68;;;6.45;;
10126;SDS011;13080;42.608;23.362;2023-07-13T07:12:41;12.15;;;6.57;;
10126;SDS011;13080;42.608;23.362;2023-07-13T07:15:08;10.65;;;6.38;;
10126;SDS011;13080;42.608;23.362;2023-07-13T07:17:35;8.63;;;6.10;;
10126;SDS011;13080;42.608;23.362;2023-07-13T07:20:04;8.95;;;6.25;;
10126;SDS011;13080;42.608;23.362;2023-07-13T07:22:32;9.15;;;5.40;;
10126;SDS011;13080;42.608;23.362;2023-07-13T07:24:59;10.77;;;5.95;;
10126;SDS011;13080;42.608;23.362;2023-07-13T07:27:26;10.30;;;6.35;;
10126;SDS011;13080;42.608;23.362;2023-07-13T07:29:52;9.65;;;7.13;;
10126;SDS011;13080;42.608;23.362;2023-07-13T07:32:19;10.77;;;7.22;;
10126;SDS011;13080;42.608;23.362;2023-07-13T07:34:46;10.10;;;7.13;;
10126;SDS011;13080;42.608;23.362;2023-07-13T07:37:15;12.15;;;6.65;;
10126;SDS011;13080;42.608;23.362;2023-07-13T07:39:42;10.63;;;6.93;;
10126;SDS011;13080;42.608;23.362;2023-07-13T07:42:09;10.85;;;6.30;;
10126;SDS011;13080;42.608;23.362;2023-07-13T07:44:35;13.48;;;7.00;;
10126;SDS011;13080;42.608;23.362;2023-07-13T07:47:02;8.68;;;6.38;;
10126;SDS011;13080;42.608;23.362;2023-07-13T07:49:29;12.05;;;6.55;;
10126;SDS011;13080;42.608;23.362;2023-07-13T07:51:56;8.52;;;6.68;;
10126;SDS011;13080;42.608;23.362;2023-07-13T07:54:24;12.40;;;6.60;;
10126;SDS011;13080;42.608;23.362;2023-07-13T07:56:51;12.68;;;6.80;;
10126;SDS011;13080;42.608;23.362;2023-07-13T07:59:18;10.00;;;6.88;;
10126;SDS011;13080;42.608;23.362;2023-07-13T08:01:45;12.95;;;7.18;;
10126;SDS011;13080;42.608;23.362;2023-07-13T08:04:13;18.13;;;7.00;;
10126;SDS011;13080;42.608;23.362;2023-07-13T08:06:39;11.70;;;6.93;;
10126;SDS011;13080;42.608;23.362;2023-07-13T08:09:06;12.23;;;6.78;;
10126;SDS011;13080;42.608;23.362;2023-07-13T08:11:34;20.08;;;7.22;;
10126;SDS011;13080;42.608;23.362;2023-07-13T08:14:02;17.17;;;7.95;;
10126;SDS011;13080;42.608;23.362;2023-07-13T08:16:29;14.02;;;6.90;;
10126;SDS011;13080;42.608;23.362;2023-07-13T08:18:57;11.05;;;7.50;;
10126;SDS011;13080;42.608;23.362;2023-07-13T08:21:24;14.68;;;7.30;;
10126;SDS011;13080;42.608;23.362;2023-07-13T08:23:51;11.52;;;7.20;;
10126;SDS011;13080;42.608;23.362;2023-07-13T08:26:18;10.40;;;7.13;;
10126;SDS011;13080;42.608;23.362;2023-07-13T08:28:46;13.60;;;7.15;;
10126;SDS011;13080;42.608;23.362;2023-07-13T08:31:13;9.15;;;7.13;;
10126;SDS011;13080;42.608;23.362;2023-07-13T08:33:40;9.43;;;7.35;;
10126;SDS011;13080;42.608;23.362;2023-07-13T08:36:07;11.40;;;7.18;;
10126;SDS011;13080;42.608;23.362;2023-07-13T08:38:34;9.68;;;6.68;;
10126;SDS011;13080;42.608;23.362;2023-07-13T08:41:02;11.25;;;7.43;;
10126;SDS011;13080;42.608;23.362;2023-07-13T08:43:37;11.88;;;6.93;;
10126;SDS011;13080;42.608;23.362;2023-07-13T08:46:07;11.57;;;6.88;;
10126;SDS011;13080;42.608;23.362;2023-07-13T08:48:39;10.88;;;7.50;;
10126;SDS011;13080;42.608;23.362;2023-07-13T08:51:11;9.90;;;7.85;;
10126;SDS011;13080;42.608;23.362;2023-07-13T08:53:48;9.63;;;7.07;;
10126;SDS011;13080;42.608;23.362;2023-07-13T08:56:18;13.77;;;7.60;;
10126;SDS011;13080;42.608;23.362;2023-07-13T08:58:48;11.32;;;7.53;;
10126;SDS011;13080;42.608;23.362;2023-07-13T09:01:22;12.45;;;7.53;;
10126;SDS011;13080;42.608;23.362;2023-07-13T09:03:57;9.38;;;6.90;;
10126;SDS011;13080;42.608;23.362;2023-07-13T09:06:31;11.57;;;7.30;;
10126;SDS011;13080;42.608;23.362;2023-07-13T09:09:10;10.77;;;6.72;;
10126;SDS011;13080;42.608;23.362;2023-07-13T09:11:46;11.00;;;6.63;;
10126;SDS011;13080;42.608;23.362;2023-07-13T09:14:35;11.35;;;6.32;;
10126;SDS011;13080;42.608;23.362;2023-07-13T09:17:11;10.65;;;6.57;;
10126;SDS011;13080;42.608;23.362;2023-07-13T09:19:42;11.80;;;6.63;;
10126;SDS011;13080;42.608;23.362;2023-07-13T09:22:14;9.70;;;6.47;;
10126;SDS011;13080;42.608;23.362;2023-07-13T09:24:49;9.48;;;5.82;;
10126;SDS011;13080;42.608;23.362;2023-07-13T09:27:21;10.77;;;6.45;;
10126;SDS011;13080;42.608;23.362;2023-07-13T09:29:54;8.00;;;6.75;;
10126;SDS011;13080;42.608;23.362;2023-07-13T09:32:29;12.35;;;6.75;;
10126;SDS011;13080;42.608;23.362;2023-07-13T09:34:57;8.40;;;6.93;;
10126;SDS011;13080;42.608;23.362;2023-07-13T09:37:28;9.82;;;6.32;;
10126;SDS011;13080;42.608;23.362;2023-07-13T09:39:58;10.65;;;6.28;;
10126;SDS011;13080;42.608;23.362;2023-07-13T09:42:30;8.30;;;6.05;;
10126;SDS011;13080;42.608;23.362;2023-07-13T09:44:59;13.60;;;6.90;;
10126;SDS011;13080;42.608;23.362;2023-07-13T09:47:31;15.93;;;6.90;;
10126;SDS011;13080;42.608;23.362;2023-07-13T09:50:05;11.18;;;6.28;;
10126;SDS011;13080;42.608;23.362;2023-07-13T09:52:41;9.32;;;6.63;;
10126;SDS011;13080;42.608;23.362;2023-07-13T09:55:22;11.35;;;7.05;;
10126;SDS011;13080;42.608;23.362;2023-07-13T09:57:51;7.57;;;6.65;;
10126;SDS011;13080;42.608;23.362;2023-07-13T10:00:20;14.48;;;9.70;;
10126;SDS011;13080;42.608;23.362;2023-07-13T10:02:59;14.75;;;8.55;;
10126;SDS011;13080;42.608;23.362;2023-07-13T10:05:37;13.27;;;6.75;;
10126;SDS011;13080;42.608;23.362;2023-07-13T10:08:08;10.55;;;7.15;;
10126;SDS011;13080;42.608;23.362;2023-07-13T10:10:43;10.88;;;6.55;;
10126;SDS011;13080;42.608;23.362;2023-07-13T10:13:21;13.95;;;7.75;;
10126;SDS011;13080;42.608;23.362;2023-07-13T10:15:52;14.38;;;6.72;;
10126;SDS011;13080;42.608;23.362;2023-07-13T10:18:20;10.45;;;7.00;;
10126;SDS011;13080;42.608;23.362;2023-07-13T10:20:48;19.85;;;7.25;;
10126;SDS011;13080;42.608;23.362;2023-07-13T10:23:19;13.60;;;6.72;;
10126;SDS011;13080;42.608;23.362;2023-07-13T18:20:34;9.93;;;4.20;;
10126;SDS011;13080;42.608;23.362;2023-07-13T18:23:02;12.30;;;4.13;;
10126;SDS011;13080;42.608;23.362;2023-07-13T18:25:31;9.70;;;4.60;;
10126;SDS011;13080;42.608;23.362;2023-07-13T18:27:57;13.57;;;3.92;;
10126;SDS011;13080;42.608;23.362;2023-07-13T18:30:24;12.43;;;4.00;;
10126;SDS011;13080;42.608;23.362;2023-07-13T18:32:51;10.32;;;3.85;;
10126;SDS011;13080;42.608;23.362;2023-07-13T18:35:21;7.32;;;3.38;;
10126;SDS011;13080;42.608;23.362;2023-07-13T18:37:55;7.20;;;3.80;;
10126;SDS011;13080;42.608;23.362;2023-07-13T18:40:22;11.32;;;4.63;;
10126;SDS011;13080;42.608;23.362;2023-07-13T18:42:50;7.93;;;3.78;;
10126;SDS011;13080;42.608;23.362;2023-07-13T18:45:18;9.20;;;3.75;;
10126;SDS011;13080;42.608;23.362;2023-07-13T18:47:46;10.45;;;4.00;;
10126;SDS011;13080;42.608;23.362;2023-07-13T18:50:24;11.32;;;4.68;;
10126;SDS011;13080;42.608;23.362;2023-07-13T18:52:56;13.82;;;5.22;;
10126;SDS011;13080;42.608;23.362;2023-07-13T18:55:23;16.55;;;5.13;;
10126;SDS011;13080;42.608;23.362;2023-07-13T18:57:50;9.90;;;4.63;;
10126;SDS011;13080;42.608;23.362;2023-07-13T19:00:20;12.23;;;4.47;;
10126;SDS011;13080;42.608;23.362;2023-07-13T19:02:51;10.15;;;4.10;;
10126;SDS011;13080;42.608;23.362;2023-07-13T19:05:19;7.50;;;4.05;;
10126;SDS011;13080;42.608;23.362;2023-07-13T19:07:48;11.30;;;4.35;;
10126;SDS011;13080;42.608;23.362;2023-07-13T19:10:18;8.77;;;4.15;;
10126;SDS011;13080;42.608;23.362;2023-07-13T19:12:48;12.73;;;4.53;;
10126;SDS011;13080;42.608;23.362;2023-07-13T19:15:20;11.35;;;5.00;;
10126;SDS011;13080;42.608;23.362;2023-07-13T19:17:49;11.15;;;6.18;;
10126;SDS011;13080;42.608;23.362;2023-07-13T19:20:16;9.15;;;4.97;;
10126;SDS011;13080;42.608;23.362;2023-07-13T19:22:48;14.55;;;7.05;;
10126;SDS011;13080;42.608;23.362;2023-07-13T19:25:19;10.20;;;4.93;;
10126;SDS011;13080;42.608;23.362;2023-07-13T19:27:46;8.90;;;4.10;;
10126;SDS011;13080;42.608;23.362;2023-07-13T19:30:15;6.78;;;4.03;;
10126;SDS011;13080;42.608;23.362;2023-07-13T19:32:43;10.00;;;4.25;;
10126;SDS011;13080;42.608;23.362;2023-07-13T19:35:11;12.15;;;4.20;;
10126;SDS011;13080;42.608;23.362;2023-07-13T19:37:38;8.90;;;3.72;;
10126;SDS011;13080;42.608;23.362;2023-07-13T19:40:05;7.07;;;4.22;;
10126;SDS011;13080;42.608;23.362;2023-07-13T19:42:44;9.65;;;3.83;;
10126;SDS011;13080;42.608;23.362;2023-07-13T19:45:14;10.40;;;4.65;;
10126;SDS011;13080;42.608;23.362;2023-07-13T19:47:43;9.90;;;3.95;;
10126;SDS011;13080;42.608;23.362;2023-07-13T19:50:11;6.50;;;3.58;;
10126;SDS011;13080;42.608;23.362;2023-07-13T19:52:40;9.45;;;4.70;;
10126;SDS011;13080;42.608;23.362;2023-07-13T19:55:10;6.30;;;3.67;;
10126;SDS011;13080;42.608;23.362;2023-07-13T19:57:39;10.50;;;4.07;;
10126;SDS011;13080;42.608;23.362;2023-07-13T20:00:14;7.45;;;4.32;;
10126;SDS011;13080;42.608;23.362;2023-07-13T20:02:42;6.43;;;3.85;;
10126;SDS011;13080;42.608;23.362;2023-07-13T20:05:09;7.93;;;4.22;;
10126;SDS011;13080;42.608;23.362;2023-07-13T20:07:36;9.27;;;4.30;;
10126;SDS011;13080;42.608;23.362;2023-07-13T20:10:06;14.10;;;4.22;;
10126;SDS011;13080;42.608;23.362;2023-07-13T20:12:43;10.80;;;3.97;;
10126;SDS011;13080;42.608;23.362;2023-07-13T20:15:14;8.43;;;4.40;;
10126;SDS011;13080;42.608;23.362;2023-07-13T20:17:43;9.43;;;4.10;;
10126;SDS011;13080;42.608;23.362;2023-07-13T20:20:29;7.82;;;4.28;;
10126;SDS011;13080;42.608;23.362;2023-07-13T20:22:58;8.25;;;4.15;;
10126;SDS011;13080;42.608;23.362;2023-07-13T20:25:26;11.23;;;4.80;;
10126;SDS011;13080;42.608;23.362;2023-07-13T20:27:55;8.60;;;4.38;;
10126;SDS011;13080;42.608;23.362;2023-07-13T20:30:28;8.75;;;4.47;;
10126;SDS011;13080;42.608;23.362;2023-07-13T20:32:58;11.52;;;4.43;;
10126;SDS011;13080;42.608;23.362;2023-07-13T20:35:27;8.98;;;4.35;;
10126;SDS011;13080;42.608;23.362;2023-07-13T20:37:55;12.00;;;4.43;;
10126;SDS011;13080;42.608;23.362;2023-07-13T20:40:23;9.73;;;4.15;;
10126;SDS011;13080;42.608;23.362;2023-07-13T20:42:51;6.53;;;4.18;;
10126;SDS011;13080;42.608;23.362;2023-07-13T20:45:19;10.10;;;4.13;;
10126;SDS011;13080;42.608;23.362;2023-07-13T20:47:48;5.68;;;3.55;;
10126;SDS011;13080;42.608;23.362;2023-07-13T20:50:20;11.32;;;4.28;;
10126;SDS011;13080;42.608;23.362;2023-07-13T20:52:51;7.72;;;3.63;;
10126;SDS011;13080;42.608;23.362;2023-07-13T20:55:20;7.95;;;4.05;;
10126;SDS011;13080;42.608;23.362;2023-07-13T20:57:49;7.50;;;3.95;;
10126;SDS011;13080;42.608;23.362;2023-07-13T21:00:17;12.02;;;4.32;;
10126;SDS011;13080;42.608;23.362;2023-07-13T21:02:45;6.47;;;3.72;;
10126;SDS011;13080;42.608;23.362;2023-07-13T21:05:16;6.70;;;3.88;;
10126;SDS011;13080;42.608;23.362;2023-07-13T21:07:45;6.80;;;3.65;;
10126;SDS011;13080;42.608;23.362;2023-07-13T21:10:18;6.53;;;3.88;;
10126;SDS011;13080;42.608;23.362;2023-07-13T21:12:47;8.63;;;4.10;;
10126;SDS011;13080;42.608;23.362;2023-07-13T21:15:15;8.38;;;3.92;;
10126;SDS011;13080;42.608;23.362;2023-07-13T21:17:42;7.60;;;3.85;;
10126;SDS011;13080;42.608;23.362;2023-07-13T21:20:20;8.40;;;4.28;;
10126;SDS011;13080;42.608;23.362;2023-07-13T21:22:48;7.97;;;3.53;;
10126;SDS011;13080;42.608;23.362;2023-07-13T21:25:16;8.52;;;4.15;;
10126;SDS011;13080;42.608;23.362;2023-07-13T21:27:44;6.68;;;3.70;;
10126;SDS011;13080;42.608;23.362;2023-07-13T21:30:12;8.85;;;3.83;;
10126;SDS011;13080;42.608;23.362;2023-07-13T21:32:40;8.50;;;3.88;;
10126;SDS011;13080;42.608;23.362;2023-07-13T21:35:14;8.43;;;3.97;;
10126;SDS011;13080;42.608;23.362;2023-07-13T21:37:46;9.65;;;3.88;;
10126;SDS011;13080;42.608;23.362;2023-07-13T21:40:14;9.48;;;3.85;;
10126;SDS011;13080;42.608;23.362;2023-07-13T21:42:43;9.60;;;4.07;;
10126;SDS011;13080;42.608;23.362;2023-07-13T21:45:16;7.78;;;4.57;;
10126;SDS011;13080;42.608;23.362;2023-07-13T21:47:45;10.52;;;3.97;;
10126;SDS011;13080;42.608;23.362;2023-07-13T21:50:12;7.85;;;4.05;;
10126;SDS011;13080;42.608;23.362;2023-07-13T21:52:39;7.57;;;4.50;;
10126;SDS011;13080;42.608;23.362;2023-07-13T21:55:13;7.63;;;3.85;;
10126;SDS011;13080;42.608;23.362;2023-07-13T21:57:41;7.65;;;3.38;;
10126;SDS011;13080;42.608;23.362;2023-07-13T22:00:18;10.80;;;4.40;;
10126;SDS011;13080;42.608;23.362;2023-07-13T22:02:48;6.18;;;3.75;;
10126;SDS011;13080;42.608;23.362;2023-07-13T22:05:15;6.88;;;4.00;;
10126;SDS011;13080;42.608;23.362;2023-07-13T22:07:43;9.13;;;3.83;;
10126;SDS011;13080;42.608;23.362;2023-07-13T22:10:16;9.02;;;4.03;;
10126;SDS011;13080;42.608;23.362;2023-07-13T22:12:45;7.60;;;3.80;;
10126;SDS011;13080;42.608;23.362;2023-07-13T22:15:13;12.65;;;4.20;;
10126;SDS011;13080;42.608;23.362;2023-07-13T22:17:41;8.10;;;4.35;;
10126;SDS011;13080;42.608;23.362;2023-07-13T22:20:15;7.80;;;4.00;;
10126;SDS011;13080;42.608;23.362;2023-07-13T22:22:44;8.15;;;4.03;;
10126;SDS011;13080;42.608;23.362;2023-07-13T22:25:11;11.32;;;4.22;;
10126;SDS011;13080;42.608;23.362;2023-07-13T22:27:39;11.60;;;4.47;;
10126;SDS011;13080;42.608;23.362;2023-07-13T22:30:08;8.30;;;3.72;;
10126;SDS011;13080;42.608;23.362;2023-07-13T22:32:39;8.82;;;4.40;;
10126;SDS011;13080;42.608;23.362;2023-07-13T22:35:07;9.85;;;4.40;;
10126;SDS011;13080;42.608;23.362;2023-07-13T22:37:35;10.15;;;4.35;;